Cornwall On Hudson, New York
Current Conditions -  °F | °C
As of 11:45 PM on Wednesday 22 Oct 2014 (Local Time) from KSWF Reporting Station
Light Rain Light Rain  
Wind Chill: 41°   Ceiling: 1100
Heat Index: 48°   Visibility: 3mi
Dew Point: 48°   Wind: 22mph
Humidity: 100%   Direction: 20°NNE
Pressure: 29.82"   Gusts: 28mph
Location:  41.44°N, 74.02°W
Report Text: KSWF 230345Z 02019G24KT 3SM -RA BR OVC011 09/09 A2982
Loading
Personal Weather Stations






























Interactive Weather Map
Tropical Storm Tracking
New forecast layout! Learn more

10-Day Weather Forecast

Advertisements
Track Severe Weather on mobile